Flight Track Log - Related Links

Times and Time Zones

All times are in EDT time to prevent confusion due to time zone crossing. See the FLG4262 flight status page for this flight to view local times or setup timezone preferences in your user account.

Time Position Orientation Groundspeed Altitude Reporting Facility
EDT Latitude Longitude Course Direction KTS MPH feet Rate Location/Type
Mon 05:25:13 PM 42.2628 -76.1225 292° West 226 260 5,800  Level New York Center
Mon 05:26:00 PM 42.2242 -76.4993 291° West  Level Estimated
Mon 05:26:15 PM 42.2897 -76.2172 291° West 251 289 7,900  Level New York Center
Mon 05:27:00 PM 42.2278 -76.6293 287° West  Level Estimated
Mon 05:27:12 PM 42.3186 -76.3122 292° West 267 307 10,300  Level New York Center
Mon 05:28:00 PM 42.2312 -76.7592 294° West  Level Estimated
Mon 05:28:12 PM 42.3472 -76.4156 291° West 279 321 11,700  Level New York Center
Mon 05:28:47 PM 42.3653 -76.4831 290° West 314 361 12,500 1,361 Climbing Cleveland Center
Mon 05:29:00 PM 42.2345 -76.8892 289° West  Level Estimated
Mon 05:29:49 PM 42.3981 -76.6017 291° West 334 384 13,900  Level Cleveland Center
Mon 05:30:51 PM 42.4319 -76.7256 290° West 346 398 15,300 1,355 Climbing Cleveland Center
Mon 05:31:53 PM 42.4647 -76.8492 290° West 350 403 16,700 1,306 Climbing Cleveland Center
Mon 05:32:55 PM 42.4972 -76.9753 289° West 355 409 18,000 1,258 Climbing Cleveland Center
Mon 05:33:57 PM 42.5314 -77.1003 290° West 354 407 19,300 1,210 Climbing Cleveland Center
Mon 05:34:59 PM 42.5722 -77.2542 290° West 362 417 20,500 1,065 Climbing Cleveland Center
Mon 05:36:01 PM 42.6064 -77.3839 290° West 366 421 21,500 823 Climbing Cleveland Center
Mon 05:37:03 PM 42.6419 -77.5219 289° West 373 429 22,200 624 Climbing Cleveland Center
Mon 05:38:06 PM 42.6472 -77.6669 273° West 382 440 22,800 528 Climbing Cleveland Center
Mon 05:39:08 PM 42.6531 -77.8261 273° West 394 453 23,300 435 Climbing Cleveland Center
Mon 05:40:10 PM 42.6581 -77.9806 273° West 407 468 23,700 339 Climbing Cleveland Center
Mon 05:41:12 PM 42.6617 -78.1361 272° West 413 475 24,000 145 Climbing Cleveland Center
Mon 05:42:14 PM 42.6664 -78.2969 272° West 425 489 24,000  Level Cleveland Center
Mon 05:43:16 PM 42.6711 -78.4944 272° West 435 501 24,000  Level Cleveland Center
Mon 05:44:18 PM 42.6764 -78.6614 273° West 442 509 24,000  Level Cleveland Center
Mon 05:45:21 PM 42.6822 -78.8278 273° West 442 509 24,000  Level Cleveland Center
Mon 05:46:23 PM 42.6844 -78.9944 271° West 441 507 24,000  Level Cleveland Center
Mon 05:47:25 PM 42.6875 -79.1625 271° West 446 513 24,000  Level Cleveland Center
Mon 05:48:27 PM 42.6897 -79.3286 271° West 443 510 24,000  Level Cleveland Center
Mon 05:49:29 PM 42.6933 -79.5297 271° West 445 512 24,000  Level Cleveland Center
Mon 05:50:31 PM 42.6956 -79.6975 271° West 445 512 24,000  Level Cleveland Center
Mon 05:51:33 PM 42.6986 -79.8642 271° West 443 510 24,000  Level Cleveland Center
Mon 05:52:35 PM 42.6978 -80.0278 270° West 444 511 24,000  Level Cleveland Center
Mon 05:53:37 PM 42.7006 -80.1978 271° West 447 514 24,000  Level Cleveland Center
Mon 05:54:39 PM 42.7006 -80.3947 270° West 444 511 24,000  Level Cleveland Center
Mon 05:55:41 PM 42.7028 -80.5661 271° West 449 517 24,000  Level Cleveland Center
Mon 05:56:43 PM 42.7056 -80.7378 271° West 452 520 24,000  Level Cleveland Center
Mon 05:57:45 PM 42.7047 -80.8983 270° West 432 497 24,000  Level Cleveland Center
Mon 05:58:48 PM 42.6878 -81.0489 261° West 406 467 24,000 -144 Level Cleveland Center
Mon 05:59:50 PM 42.6697 -81.2008 261° West 405 466 23,700 -484 Descending Cleveland Center
Mon 06:00:52 PM 42.6481 -81.3853 261° West 418 481 23,000 -339 Descending Cleveland Center
Mon 06:01:54 PM 42.6306 -81.5406 261° West 416 479 23,000  Level Cleveland Center
Mon 06:02:56 PM 42.6128 -81.6892 261° West 402 463 23,000 -435 Level Cleveland Center
Mon 06:03:58 PM 42.5933 -81.8472 261° West 397 457 22,100 -1,500 Descending Cleveland Center
Mon 06:05:00 PM 42.5747 -81.9967 260° West 401 461 19,900 -2,081 Descending Cleveland Center
Mon 06:06:02 PM 42.5586 -82.1342 261° West 374 430 17,800 -2,173 Descending Cleveland Center
Mon 06:07:07 PM 42.5411 -82.2792 261° West 333 383 15,300 -2,000 Descending Cleveland Center
Mon 06:08:02 PM 42.5272 -82.3906 260° West 325 374 13,800 -1,424 Descending Cleveland Center
Mon 06:08:06 PM 42.5264 -82.3817 97° East 332 382 13,900 -1,364 Climbing Cleveland Center
Mon 06:09:08 PM 42.5119 -82.5028 261° West 327 376 12,300 -1,781 Descending Cleveland Center
Mon 06:09:10 PM 42.5092 -82.5297 262° West 328 377 12,000 -290 Descending Cleveland Center
Mon 06:10:10 PM 42.4739 -82.6339 245° Southwest 312 359 12,000  Level Cleveland Center
Mon 06:10:11 PM 42.4742 -82.6383 275° West 311 358 12,000 -1,286 Level Cleveland Center
Mon 06:11:06 PM 42.4422 -82.7331 245° Southwest 304 350 10,800 -1,279 Descending Cleveland Center
Mon 06:11:12 PM 42.4375 -82.7397 226° Southwest 311 358 10,700 -1,235 Descending Cleveland Center
Mon 06:12:14 PM 42.4031 -82.8411 245° Southwest 265 305 9,400 -1,238 Descending Cleveland Center
Mon 06:12:15 PM 42.4031 -82.8356 90° East 295 339 9,400 -1,082 Level Cleveland Center
Mon 06:13:15 PM 42.3825 -82.9203 252° West 226 260 8,300 -1,065 Descending Cleveland Center
Mon 06:13:17 PM 42.3792 -82.9125 120° Southeast 235 270 8,300 -295 Level Cleveland Center
Mon 06:14:16 PM 42.4244 -82.9739 315° West 195 224 8,000 -290 Descending Cleveland Center
Mon 06:14:19 PM 42.4208 -82.9683 131° Southeast 215 247 8,000 -923 Level Cleveland Center
Mon 06:15:21 PM 42.4747 -83.0289 320° Northwest 212 244 7,000 -526 Descending Cleveland Center
Mon 06:16:13 PM 42.5064 -83.0842 308° West 222 255 7,000  Level Cleveland Center
Mon 06:16:23 PM 42.5022 -83.0925 236° Southwest 224 258 7,000 -1,082 Level Cleveland Center
Mon 06:17:14 PM 42.4775 -83.1622 244° Southwest 220 253 5,900 -1,161 Descending Cleveland Center
Mon 06:17:25 PM 42.4739 -83.1661 218° Southwest 221 254 5,800 -871 Descending Cleveland Center
Mon 06:18:16 PM 42.4325 -83.2011 212° Southwest 172 198 5,000 -871 Descending Cleveland Center
Mon 06:18:27 PM 42.4292 -83.2014 184° South 190 219 4,900 -885 Descending Cleveland Center
Mon 06:19:17 PM 42.3861 -83.2344 210° Southwest 189 217 4,100 -871 Descending Cleveland Center
Mon 06:19:29 PM 42.3844 -83.2339 166° South 181 208 4,000 -984 Descending Cleveland Center
Mon 06:20:18 PM 42.3417 -83.2678 210° Southwest 181 208 3,100 -968 Descending Cleveland Center
Mon 06:20:31 PM 42.3389 -83.2692 200° South 185 213 3,000 -984 Descending Cleveland Center
Mon 06:21:19 PM 42.2972 -83.3008 209° Southwest 178 205 2,100 -871 Descending Cleveland Center
Mon 06:21:33 PM 42.2953 -83.3014 192° South 182 209 2,100 -787 Level Cleveland Center
Mon 06:22:20 PM 42.2550 -83.3317 209° Southwest 152 175 1,300 -968 Descending Cleveland Center
Mon 06:22:35 PM 42.2472 -83.3356 200° South 168 193 1,100 -800 Descending Cleveland Center

Login

Don't have an account? Register now (free) for customized features, flight alerts, and more!